Time;durP1;ratioP1;P1;durP2;ratioP2;P2;SDS_P1;SDS_P2;PMS_P1;PMS_P2;Temp;Humidity;BMP_temperature;BMP_pressure;BME280_temperature;BME280_humidity;BME280_pressure;Samples;Min_cycle;Max_cycle;Signal;HPM_P1;HPM_P2
2022/08/03 00:00:14;;;;;;;2.73;1.20;;;23.90;99.90;;;;;;1038891;28;20044;-69
2022/08/03 00:00:44;;;;;;;2.05;1.42;;;23.90;99.90;;;;;;1038845;28;20489;-69
2022/08/03 00:01:16;;;;;;;1.93;1.00;;;23.90;99.90;;;;;;1038864;28;20592;-69
2022/08/03 00:01:46;;;;;;;4.18;1.40;;;23.90;99.90;;;;;;1038821;28;20057;-69
2022/08/03 00:02:17;;;;;;;3.47;1.37;;;23.80;99.90;;;;;;1038978;28;20031;-70
2022/08/03 00:02:48;;;;;;;1.67;1.00;;;23.80;99.90;;;;;;1041620;28;20126;-69
2022/08/03 00:03:19;;;;;;;4.50;1.57;;;23.80;99.90;;;;;;1043090;28;20141;-69
2022/08/03 00:03:50;;;;;;;5.13;1.70;;;23.80;99.90;;;;;;1042470;28;20027;-69
2022/08/03 00:04:21;;;;;;;1.85;1.08;;;23.80;99.90;;;;;;1042421;28;20039;-69
2022/08/03 00:04:51;;;;;;;2.53;0.90;;;23.80;99.90;;;;;;1042562;28;20124;-70
2022/08/03 00:05:22;;;;;;;3.40;1.30;;;23.80;99.90;;;;;;1042812;28;20037;-69
2022/08/03 00:05:52;;;;;;;3.43;1.27;;;23.80;99.90;;;;;;1042729;28;20021;-69
2022/08/03 00:06:23;;;;;;;4.43;1.53;;;23.80;99.90;;;;;;1043128;28;20023;-69
2022/08/03 00:06:53;;;;;;;3.80;1.20;;;23.80;99.90;;;;;;1042858;28;20029;-69
2022/08/03 00:07:24;;;;;;;5.20;1.17;;;23.80;99.90;;;;;;1043137;28;20460;-69
2022/08/03 00:07:54;;;;;;;2.00;1.23;;;23.80;99.90;;;;;;1042800;28;20556;-69
2022/08/03 00:08:25;;;;;;;2.27;1.17;;;23.80;99.90;;;;;;1043053;28;20361;-69
2022/08/03 00:08:56;;;;;;;3.07;1.43;;;23.80;99.90;;;;;;1042829;28;20405;-69
2022/08/03 00:09:26;;;;;;;2.67;1.10;;;23.80;99.90;;;;;;1043114;28;20070;-69
2022/08/03 00:09:57;;;;;;;1.93;1.30;;;23.80;99.90;;;;;;1042695;28;20409;-69
2022/08/03 00:10:27;;;;;;;1.53;1.00;;;23.80;99.90;;;;;;1043050;28;20060;-70
2022/08/03 00:10:58;;;;;;;4.03;1.50;;;23.80;99.90;;;;;;1042861;28;20021;-69
2022/08/03 00:11:28;;;;;;;3.23;1.07;;;23.80;99.90;;;;;;1042939;28;20013;-69
2022/08/03 00:11:59;;;;;;;2.17;1.13;;;23.80;99.90;;;;;;1042676;28;20013;-69
2022/08/03 00:12:29;;;;;;;2.17;1.27;;;23.80;99.90;;;;;;1043147;28;20103;-69
2022/08/03 00:13:00;;;;;;;1.80;0.90;;;23.80;99.90;;;;;;1042740;28;20039;-69
2022/08/03 00:13:30;;;;;;;2.17;1.07;;;23.80;99.90;;;;;;1043065;28;20104;-70
2022/08/03 00:14:02;;;;;;;2.43;1.37;;;23.80;99.90;;;;;;1042604;28;20048;-69
2022/08/03 00:14:32;;;;;;;4.20;1.48;;;23.80;99.90;;;;;;1043328;28;20013;-69
2022/08/03 00:15:04;;;;;;;2.33;1.10;;;23.80;99.90;;;;;;1042326;28;20413;-69
2022/08/03 00:15:34;;;;;;;3.53;1.23;;;23.80;99.90;;;;;;1043106;28;20028;-70
2022/08/03 00:16:05;;;;;;;2.30;1.02;;;23.80;99.90;;;;;;1042756;28;20028;-69
2022/08/03 00:16:36;;;;;;;2.07;1.00;;;23.80;99.90;;;;;;1043005;28;20070;-69
2022/08/03 00:17:06;;;;;;;3.17;1.20;;;23.80;99.90;;;;;;1042780;28;20017;-69
2022/08/03 00:17:37;;;;;;;2.33;1.27;;;23.80;99.90;;;;;;1042807;28;20063;-69
2022/08/03 00:18:08;;;;;;;2.03;1.23;;;23.80;99.90;;;;;;1042313;28;20025;-69
2022/08/03 00:18:39;;;;;;;3.90;1.13;;;23.80;99.90;;;;;;1042610;28;20025;-69
2022/08/03 00:19:10;;;;;;;5.25;1.60;;;23.80;99.90;;;;;;1042630;28;20024;-69
2022/08/03 00:19:41;;;;;;;3.23;1.67;;;23.80;99.90;;;;;;1042762;28;20028;-69
2022/08/03 00:20:11;;;;;;;4.07;1.57;;;23.80;99.90;;;;;;1042942;28;20100;-69
2022/08/03 00:20:42;;;;;;;6.23;1.40;;;23.80;99.90;;;;;;1042917;28;20075;-69
2022/08/03 00:21:12;;;;;;;3.00;1.30;;;23.80;99.90;;;;;;1043153;28;20040;-70
2022/08/03 00:21:43;;;;;;;2.77;1.20;;;23.80;99.90;;;;;;1042387;28;20047;-69
2022/08/03 00:22:14;;;;;;;2.60;1.30;;;23.80;99.90;;;;;;1034441;28;20426;-69
2022/08/03 00:22:45;;;;;;;2.23;1.47;;;23.80;99.90;;;;;;1034249;28;20030;-69
2022/08/03 00:23:16;;;;;;;3.33;1.43;;;23.80;99.90;;;;;;1034835;28;20260;-69
2022/08/03 00:23:46;;;;;;;3.33;1.10;;;23.80;99.90;;;;;;1034285;28;20025;-70
2022/08/03 00:24:17;;;;;;;3.17;1.40;;;23.80;99.90;;;;;;1038869;28;20025;-70
2022/08/03 00:24:47;;;;;;;3.13;1.17;;;23.80;99.90;;;;;;1042543;28;20048;-69
2022/08/03 00:25:18;;;;;;;4.57;1.40;;;23.80;99.90;;;;;;1042637;28;20472;-69
2022/08/03 00:25:49;;;;;;;3.25;1.38;;;23.70;99.90;;;;;;1042449;28;20144;-69
2022/08/03 00:26:20;;;;;;;3.93;1.50;;;23.70;99.90;;;;;;1042819;28;20021;-69
2022/08/03 00:26:51;;;;;;;2.75;1.08;;;23.70;99.90;;;;;;1042355;28;20025;-70
2022/08/03 00:27:21;;;;;;;3.07;1.17;;;23.70;99.90;;;;;;1042813;28;20017;-69
2022/08/03 00:27:52;;;;;;;4.13;1.30;;;23.70;99.90;;;;;;1042840;28;20021;-69
2022/08/03 00:28:23;;;;;;;2.80;1.10;;;23.70;99.90;;;;;;1043175;28;20013;-69
2022/08/03 00:28:54;;;;;;;4.28;1.10;;;23.70;99.90;;;;;;1042180;28;20070;-70
2022/08/03 00:29:24;;;;;;;2.80;1.50;;;23.70;99.90;;;;;;1038606;28;20139;-69
2022/08/03 00:29:55;;;;;;;3.47;1.60;;;23.70;99.90;;;;;;1038097;28;20033;-68
2022/08/03 00:30:25;;;;;;;2.00;1.00;;;23.70;99.90;;;;;;1040894;28;20378;-69
2022/08/03 00:30:56;;;;;;;3.63;1.30;;;23.70;99.90;;;;;;1042762;28;20021;-69
2022/08/03 00:31:27;;;;;;;4.27;2.20;;;23.70;99.90;;;;;;1043245;28;20083;-70
2022/08/03 00:31:57;;;;;;;2.20;1.30;;;23.70;99.90;;;;;;1042514;28;20544;-69
2022/08/03 00:32:28;;;;;;;10.20;1.47;;;23.70;99.90;;;;;;1043345;28;20025;-69
2022/08/03 00:32:59;;;;;;;5.97;1.60;;;23.70;99.90;;;;;;1042192;28;20029;-69
2022/08/03 00:33:32;;;;;;;4.65;1.52;;;23.70;99.90;;;;;;1042748;28;20117;-69
2022/08/03 00:34:03;;;;;;;2.90;1.23;;;23.70;99.90;;;;;;1038153;28;20018;-69
2022/08/03 00:34:34;;;;;;;3.63;1.50;;;23.70;99.90;;;;;;1038783;28;20013;-69
2022/08/03 00:35:05;;;;;;;3.40;1.13;;;23.70;99.90;;;;;;1038624;28;20497;-68
2022/08/03 00:35:36;;;;;;;1.92;1.17;;;23.70;99.90;;;;;;1042863;28;20036;-68
2022/08/03 00:36:06;;;;;;;3.13;1.10;;;23.70;99.90;;;;;;1042350;28;20073;-68
2022/08/03 00:36:37;;;;;;;3.73;1.23;;;23.70;99.90;;;;;;1042926;28;20182;-69
2022/08/03 00:37:07;;;;;;;1.87;1.07;;;23.70;99.90;;;;;;1042623;28;20075;-69
2022/08/03 00:37:38;;;;;;;4.37;1.63;;;23.70;99.90;;;;;;1042950;28;20041;-69
2022/08/03 00:38:08;;;;;;;2.83;1.00;;;23.70;99.90;;;;;;1042957;28;20028;-68
2022/08/03 00:38:39;;;;;;;1.90;1.00;;;23.70;99.90;;;;;;1042965;28;20482;-69
2022/08/03 00:39:09;;;;;;;2.57;1.00;;;23.70;99.90;;;;;;1042868;28;20737;-68
2022/08/03 00:39:42;;;;;;;3.53;1.50;;;23.70;99.90;;;;;;1042957;28;20437;-68
2022/08/03 00:40:14;;;;;;;3.88;1.40;;;23.70;99.90;;;;;;1042427;28;20029;-68
2022/08/03 00:40:45;;;;;;;2.00;1.20;;;23.60;99.90;;;;;;1042517;28;20033;-69
2022/08/03 00:41:16;;;;;;;2.93;1.20;;;23.60;99.90;;;;;;1042573;28;20100;-69
2022/08/03 00:41:47;;;;;;;1.97;1.00;;;23.60;99.90;;;;;;1042527;28;20090;-69
2022/08/03 00:42:18;;;;;;;3.00;1.23;;;23.60;99.90;;;;;;1042431;28;20819;-68
2022/08/03 00:42:55;;;;;;;2.97;1.23;;;23.60;99.90;;;;;;1042572;28;20025;-68
2022/08/03 00:43:26;;;;;;;2.97;1.33;;;23.60;99.90;;;;;;1042385;28;20035;-69
2022/08/03 00:43:57;;;;;;;3.72;1.73;;;23.60;99.90;;;;;;1042371;28;20021;-69
2022/08/03 00:44:27;;;;;;;2.60;1.07;;;23.60;99.90;;;;;;1040401;28;20107;-69
2022/08/03 00:44:58;;;;;;;3.60;1.37;;;23.60;99.90;;;;;;1038425;28;20140;-69
2022/08/03 00:45:34;;;;;;;2.87;1.23;;;23.60;99.90;;;;;;1038907;28;20026;-68
2022/08/03 00:46:05;;;;;;;3.22;1.40;;;23.60;99.90;;;;;;1042754;28;20021;-69
2022/08/03 00:46:35;;;;;;;2.57;1.30;;;23.60;99.90;;;;;;1042955;28;20021;-69
2022/08/03 00:47:07;;;;;;;3.73;1.57;;;23.60;99.90;;;;;;1039491;28;20673;-69
2022/08/03 00:47:37;;;;;;;3.75;1.23;;;23.60;99.90;;;;;;1042885;28;20017;-69
2022/08/03 00:48:10;;;;;;;2.13;1.27;;;23.60;99.90;;;;;;1042818;28;20028;-69
2022/08/03 00:48:40;;;;;;;2.63;1.20;;;23.60;99.90;;;;;;1042404;28;20028;-68
2022/08/03 00:49:11;;;;;;;4.37;1.40;;;23.60;99.90;;;;;;1042440;28;20028;-69
2022/08/03 00:49:41;;;;;;;2.03;1.27;;;23.60;99.90;;;;;;1042589;28;20468;-68
2022/08/03 00:50:12;;;;;;;1.60;0.97;;;23.60;99.90;;;;;;1042490;28;20041;-68
2022/08/03 00:50:43;;;;;;;2.80;1.30;;;23.60;99.90;;;;;;1042499;28;20025;-68
2022/08/03 00:51:14;;;;;;;3.60;1.23;;;23.60;99.90;;;;;;1040637;28;20298;-68
2022/08/03 00:51:45;;;;;;;3.13;1.07;;;23.60;99.90;;;;;;1038473;28;20033;-69
2022/08/03 00:52:16;;;;;;;3.30;1.38;;;23.60;99.90;;;;;;1040861;28;20076;-68
2022/08/03 00:52:46;;;;;;;2.17;1.10;;;23.60;99.90;;;;;;1042535;28;20021;-68
2022/08/03 00:53:17;;;;;;;2.47;1.10;;;23.60;99.90;;;;;;1042943;28;20055;-68
2022/08/03 00:53:49;;;;;;;4.47;1.43;;;23.60;99.90;;;;;;1042654;28;20024;-68
2022/08/03 00:54:20;;;;;;;4.53;1.45;;;23.60;99.90;;;;;;1042643;28;20021;-69
2022/08/03 00:54:51;;;;;;;4.78;1.52;;;23.60;99.90;;;;;;1043093;28;20035;-70
2022/08/03 00:55:22;;;;;;;4.40;1.87;;;23.60;99.90;;;;;;1042706;28;20024;-70
2022/08/03 00:55:52;;;;;;;3.80;1.40;;;23.60;99.90;;;;;;1043008;28;20033;-68
2022/08/03 00:56:23;;;;;;;4.60;1.57;;;23.60;99.90;;;;;;1042721;28;20112;-69
2022/08/03 00:56:53;;;;;;;1.73;1.07;;;23.60;99.90;;;;;;1042909;28;20032;-69
2022/08/03 00:57:24;;;;;;;3.50;1.38;;;23.60;99.90;;;;;;1042208;28;20091;-70
2022/08/03 00:57:55;;;;;;;3.17;1.37;;;23.60;99.90;;;;;;1040496;28;20041;-69
2022/08/03 00:58:26;;;;;;;3.57;1.50;;;23.60;99.90;;;;;;1038289;28;20661;-70
2022/08/03 00:58:57;;;;;;;5.37;1.47;;;23.60;99.90;;;;;;1038606;28;20560;-68
2022/08/03 00:59:29;;;;;;;2.65;1.20;;;23.60;99.90;;;;;;1039417;28;20002;-68
2022/08/03 01:00:00;;;;;;;3.40;1.38;;;23.50;99.90;;;;;;1038292;28;20433;-68
2022/08/03 01:00:31;;;;;;;3.30;1.30;;;23.60;99.90;;;;;;1039277;28;20821;-68
2022/08/03 01:01:03;;;;;;;2.42;1.30;;;23.50;99.90;;;;;;1039124;28;20151;-68
2022/08/03 01:01:33;;;;;;;3.50;1.15;;;23.50;99.90;;;;;;1039335;28;20022;-68
2022/08/03 01:02:07;;;;;;;3.27;1.20;;;23.50;99.90;;;;;;1040596;28;20010;-68
2022/08/03 01:02:39;;;;;;;2.50;1.30;;;23.50;99.90;;;;;;1043742;28;20013;-68
2022/08/03 01:03:11;;;;;;;1.90;1.05;;;23.50;99.90;;;;;;1043835;28;20029;-70
2022/08/03 01:03:41;;;;;;;1.77;1.13;;;23.60;99.90;;;;;;1043534;28;20598;-68
2022/08/03 01:04:13;;;;;;;5.25;1.30;;;23.50;99.90;;;;;;1043783;28;20587;-68
2022/08/03 01:04:43;;;;;;;2.28;1.17;;;23.50;99.90;;;;;;1043642;28;20015;-68
2022/08/03 01:05:14;;;;;;;4.17;1.60;;;23.50;99.90;;;;;;1043796;28;20078;-68
2022/08/03 01:05:50;;;;;;;3.60;1.47;;;23.50;99.90;;;;;;1041835;28;20024;-68
2022/08/03 01:06:38;;;;;;;4.88;1.60;;;23.50;99.90;;;;;;1039656;28;20014;-68
2022/08/03 01:07:37;;;;;;;3.25;1.33;;;23.50;99.90;;;;;;1040537;28;20054;-68
2022/08/03 01:08:30;;;;;;;4.38;1.90;;;23.50;99.90;;;;;;1039978;28;20030;-68
2022/08/03 01:09:16;;;;;;;2.30;1.25;;;23.50;99.90;;;;;;1041568;28;20009;-68
2022/08/03 01:10:18;;;;;;;2.20;1.10;;;23.50;99.90;;;;;;1043686;28;20036;-68
2022/08/03 01:11:11;;;;;;;3.47;1.20;;;23.50;99.90;;;;;;1038879;28;20412;-68
2022/08/03 01:12:06;;;;;;;2.33;1.25;;;23.50;99.90;;;;;;1039707;28;20472;-68
2022/08/03 01:12:58;;;;;;;2.38;1.15;;;23.50;99.90;;;;;;1043582;28;20021;-69
2022/08/03 01:14:05;;;;;;;2.40;1.40;;;23.50;99.90;;;;;;1043443;28;20028;-68
2022/08/03 01:14:50;;;;;;;1.88;1.13;;;23.40;99.90;;;;;;1038066;28;20094;-68
2022/08/03 01:15:37;;;;;;;4.03;1.52;;;23.40;99.90;;;;;;1039434;28;20021;-68
2022/08/03 01:16:35;;;;;;;1.67;1.17;;;23.40;99.90;;;;;;1039204;28;20096;-68
2022/08/03 01:17:25;;;;;;;5.20;1.63;;;23.50;99.90;;;;;;1039360;28;20013;-68
2022/08/03 01:18:06;;;;;;;3.38;1.40;;;23.40;99.90;;;;;;1039627;28;20029;-68
2022/08/03 01:18:57;;;;;;;3.05;1.23;;;23.40;99.90;;;;;;1039933;28;20022;-69
2022/08/03 01:19:54;;;;;;;3.97;1.88;;;23.40;99.90;;;;;;1043430;28;20028;-68
2022/08/03 01:20:31;;;;;;;2.65;1.27;;;23.50;99.90;;;;;;1043486;28;20032;-69
2022/08/03 01:21:13;;;;;;;2.85;1.50;;;23.40;99.90;;;;;;1043229;28;20017;-68
2022/08/03 01:21:46;;;;;;;2.75;1.40;;;23.40;99.90;;;;;;1043380;28;20030;-68
2022/08/03 01:22:48;;;;;;;5.95;1.50;;;23.40;99.90;;;;;;1043192;28;20049;-68
2022/08/03 01:23:47;;;;;;;3.08;1.30;;;23.40;99.90;;;;;;1043210;28;20017;-70
2022/08/03 01:24:53;;;;;;;1.60;1.10;;;23.40;99.90;;;;;;1043700;28;20051;-70
2022/08/03 01:25:39;;;;;;;4.35;1.45;;;23.40;99.90;;;;;;1043223;28;20075;-68
2022/08/03 01:26:33;;;;;;;2.97;1.35;;;23.40;99.90;;;;;;1043064;28;20121;-68
2022/08/03 01:27:30;;;;;;;3.25;1.42;;;23.40;99.90;;;;;;1039073;28;20071;-68
2022/08/03 01:28:37;;;;;;;3.17;1.50;;;23.40;99.90;;;;;;1043084;28;20013;-68
2022/08/03 01:29:36;;;;;;;4.57;1.73;;;23.40;99.90;;;;;;1043554;28;20387;-68
2022/08/03 01:30:09;;;;;;;3.05;1.50;;;23.40;99.90;;;;;;1039141;28;20445;-68
2022/08/03 01:30:42;;;;;;;3.45;1.70;;;23.40;99.90;;;;;;1038949;28;20038;-68
2022/08/03 01:31:18;;;;;;;4.07;1.45;;;23.40;99.90;;;;;;1041273;28;20596;-69
2022/08/03 01:31:57;;;;;;;4.15;1.60;;;23.40;99.90;;;;;;1039142;28;20022;-69
2022/08/03 01:32:45;;;;;;;3.28;1.45;;;23.40;99.90;;;;;;1037431;28;20029;-69
2022/08/03 01:33:27;;;;;;;4.90;1.70;;;23.40;99.90;;;;;;1039230;28;20543;-68
2022/08/03 01:34:03;;;;;;;4.78;1.30;;;23.40;99.90;;;;;;1043186;28;20876;-69
2022/08/03 01:34:44;;;;;;;6.20;1.98;;;23.40;99.90;;;;;;1043672;28;20431;-69
2022/08/03 01:35:28;;;;;;;2.75;1.45;;;23.40;99.90;;;;;;1043200;28;20930;-69
2022/08/03 01:36:05;;;;;;;1.85;1.20;;;23.40;99.90;;;;;;1043059;28;20016;-68
2022/08/03 01:36:42;;;;;;;4.32;1.65;;;23.30;99.90;;;;;;1043775;28;20009;-68
2022/08/03 01:37:18;;;;;;;3.75;1.75;;;23.40;99.90;;;;;;1042929;28;20371;-68
2022/08/03 01:37:54;;;;;;;3.72;1.48;;;23.40;99.90;;;;;;1043337;28;20068;-68
2022/08/03 01:38:30;;;;;;;3.15;1.77;;;23.40;99.90;;;;;;1043004;28;20091;-68
2022/08/03 01:39:08;;;;;;;3.88;1.55;;;23.40;99.90;;;;;;1043517;28;20017;-69
2022/08/03 01:39:40;;;;;;;3.17;1.42;;;23.30;99.90;;;;;;1043538;28;20016;-68
2022/08/03 01:40:13;;;;;;;5.13;2.25;;;23.30;99.90;;;;;;1043589;28;20104;-68
2022/08/03 01:40:45;;;;;;;2.58;1.40;;;23.30;99.90;;;;;;1043779;28;20024;-69
2022/08/03 01:41:23;;;;;;;6.47;2.05;;;23.30;99.90;;;;;;1042732;28;20025;-69
2022/08/03 01:42:04;;;;;;;4.60;1.83;;;23.30;99.90;;;;;;1043343;28;20017;-68
2022/08/03 01:42:36;;;;;;;3.00;1.85;;;23.30;99.90;;;;;;1043202;28;20345;-69
2022/08/03 01:43:09;;;;;;;5.15;1.77;;;23.30;99.90;;;;;;1041968;28;20013;-68
2022/08/03 01:43:44;;;;;;;3.83;1.65;;;23.30;99.90;;;;;;1038630;28;20128;-68
2022/08/03 01:44:15;;;;;;;4.22;1.40;;;23.30;99.90;;;;;;1039030;28;20061;-68
2022/08/03 01:44:47;;;;;;;3.85;1.40;;;23.30;99.90;;;;;;1040769;28;20056;-68
2022/08/03 01:45:20;;;;;;;3.83;1.25;;;23.30;99.90;;;;;;1040709;28;20013;-69
2022/08/03 01:45:51;;;;;;;3.20;1.35;;;23.30;99.90;;;;;;1039143;28;20583;-68
2022/08/03 01:46:24;;;;;;;1.90;1.02;;;23.30;99.90;;;;;;1040019;28;20040;-68
2022/08/03 01:46:59;;;;;;;3.50;1.42;;;23.30;99.90;;;;;;1043127;28;20020;-68
2022/08/03 01:47:31;;;;;;;4.38;1.60;;;23.30;99.90;;;;;;1040128;28;20047;-68
2022/08/03 01:48:02;;;;;;;4.65;1.73;;;23.30;99.90;;;;;;1043040;28;20020;-68
2022/08/03 01:48:35;;;;;;;2.13;1.55;;;23.30;99.90;;;;;;1043304;28;20017;-70
2022/08/03 01:49:11;;;;;;;1.80;1.20;;;23.30;99.90;;;;;;1039387;28;20100;-68
2022/08/03 01:49:44;;;;;;;2.05;1.17;;;23.30;99.90;;;;;;1038834;28;20056;-70
2022/08/03 01:50:26;;;;;;;2.65;1.40;;;23.30;99.90;;;;;;1039159;28;20014;-70
2022/08/03 01:50:58;;;;;;;2.47;1.35;;;23.30;99.90;;;;;;1041697;28;20020;-69
2022/08/03 01:51:30;;;;;;;3.35;1.50;;;23.30;99.90;;;;;;1043304;28;20020;-68
2022/08/03 01:52:03;;;;;;;3.03;1.30;;;23.30;99.90;;;;;;1043143;28;20082;-69
2022/08/03 01:52:36;;;;;;;1.45;1.05;;;23.30;99.90;;;;;;1043480;28;20021;-70
2022/08/03 01:53:08;;;;;;;6.70;1.55;;;23.30;99.90;;;;;;1042630;28;20028;-68
2022/08/03 01:53:42;;;;;;;2.33;1.33;;;23.30;99.90;;;;;;1043531;28;20025;-68
2022/08/03 01:54:14;;;;;;;3.45;1.52;;;23.30;99.90;;;;;;1043390;28;20035;-68
2022/08/03 01:54:49;;;;;;;3.35;1.50;;;23.30;99.90;;;;;;1043802;28;20064;-68
2022/08/03 01:55:22;;;;;;;2.47;1.48;;;23.30;99.90;;;;;;1043485;28;20031;-68
2022/08/03 01:55:54;;;;;;;3.53;1.50;;;23.30;99.90;;;;;;1043794;28;20105;-68
2022/08/03 01:56:28;;;;;;;3.08;1.60;;;23.30;99.90;;;;;;1043613;28;20376;-68
2022/08/03 01:56:58;;;;;;;3.72;1.38;;;23.30;99.90;;;;;;1043322;28;20790;-69
2022/08/03 01:57:30;;;;;;;2.53;1.10;;;23.30;99.90;;;;;;1043621;28;20757;-68
2022/08/03 01:58:03;;;;;;;3.88;1.55;;;23.30;99.90;;;;;;1043493;28;20097;-68
2022/08/03 01:58:36;;;;;;;1.60;1.20;;;23.30;99.90;;;;;;1043603;28;20024;-68
2022/08/03 01:59:08;;;;;;;1.88;1.33;;;23.30;99.90;;;;;;1042962;28;20800;-68
2022/08/03 01:59:40;;;;;;;3.17;1.70;;;23.30;99.90;;;;;;1043259;28;20013;-69
2022/08/03 02:00:13;;;;;;;2.88;1.30;;;23.30;99.90;;;;;;1041076;28;20036;-68
2022/08/03 02:00:45;;;;;;;3.45;1.35;;;23.30;99.90;;;;;;1043302;28;20784;-68
2022/08/03 02:01:16;;;;;;;2.95;1.55;;;23.30;99.90;;;;;;1043475;28;20032;-68
2022/08/03 02:01:49;;;;;;;4.75;1.55;;;23.20;99.90;;;;;;1043459;28;20017;-68
2022/08/03 02:02:21;;;;;;;5.80;1.83;;;23.20;99.90;;;;;;1043255;28;20104;-68
2022/08/03 02:02:55;;;;;;;2.33;1.27;;;23.20;99.90;;;;;;1043803;28;20677;-69
2022/08/03 02:03:27;;;;;;;4.85;1.67;;;23.20;99.90;;;;;;1043250;28;20083;-68
2022/08/03 02:03:59;;;;;;;2.90;1.20;;;23.20;99.90;;;;;;1043344;28;20021;-69
2022/08/03 02:04:30;;;;;;;2.88;1.50;;;23.20;99.90;;;;;;1039448;28;20426;-69
2022/08/03 02:05:04;;;;;;;2.77;1.43;;;23.20;99.90;;;;;;1039291;28;20440;-69
2022/08/03 02:05:38;;;;;;;3.80;1.45;;;23.20;99.90;;;;;;1039048;28;20319;-68
2022/08/03 02:06:12;;;;;;;3.13;1.42;;;23.20;99.90;;;;;;1039055;28;20037;-69
2022/08/03 02:06:45;;;;;;;2.58;1.30;;;23.20;99.90;;;;;;1038920;28;20025;-68
2022/08/03 02:07:16;;;;;;;3.08;1.70;;;23.20;99.90;;;;;;1042979;28;20100;-69
2022/08/03 02:07:49;;;;;;;3.55;1.60;;;23.20;99.90;;;;;;1042866;28;20513;-69
2022/08/03 02:08:22;;;;;;;4.70;1.95;;;23.20;99.90;;;;;;1043080;28;20020;-69
2022/08/03 02:08:54;;;;;;;3.33;1.58;;;23.20;99.90;;;;;;1042875;28;20020;-69
2022/08/03 02:09:26;;;;;;;3.63;1.50;;;23.20;99.90;;;;;;1043245;28;20017;-69
2022/08/03 02:09:58;;;;;;;4.75;1.83;;;23.20;99.90;;;;;;1043254;28;20009;-70
2022/08/03 02:10:31;;;;;;;5.38;1.70;;;23.20;99.90;;;;;;1043412;28;20024;-69
2022/08/03 02:11:03;;;;;;;3.22;1.80;;;23.20;99.90;;;;;;1042737;28;20083;-69
2022/08/03 02:11:35;;;;;;;2.33;1.20;;;23.20;99.90;;;;;;1043304;28;20048;-69
2022/08/03 02:12:09;;;;;;;4.20;1.80;;;23.20;99.90;;;;;;1042426;28;20019;-69
2022/08/03 02:12:43;;;;;;;5.22;1.50;;;23.20;99.90;;;;;;1043006;28;20762;-71
2022/08/03 02:13:15;;;;;;;3.30;1.63;;;23.20;99.90;;;;;;1043354;28;20558;-69
2022/08/03 02:13:48;;;;;;;5.72;2.15;;;23.20;99.90;;;;;;1043335;28;20021;-69
2022/08/03 02:14:20;;;;;;;3.42;1.38;;;23.20;99.90;;;;;;1043379;28;20456;-68
2022/08/03 02:14:51;;;;;;;3.33;1.60;;;23.20;99.90;;;;;;1043543;28;20070;-68
2022/08/03 02:15:22;;;;;;;3.22;1.60;;;23.10;99.90;;;;;;1043360;28;20067;-68
2022/08/03 02:15:54;;;;;;;4.15;1.65;;;23.20;99.90;;;;;;1042046;28;20017;-69
2022/08/03 02:16:26;;;;;;;3.47;1.50;;;23.20;99.90;;;;;;1039283;28;20680;-69
2022/08/03 02:16:58;;;;;;;3.80;1.55;;;23.10;99.90;;;;;;1039459;28;20082;-69
2022/08/03 02:17:31;;;;;;;2.17;1.73;;;23.10;99.90;;;;;;1043434;28;20025;-69
2022/08/03 02:18:05;;;;;;;5.13;2.13;;;23.10;99.90;;;;;;1043070;28;20388;-68
2022/08/03 02:18:38;;;;;;;2.33;1.23;;;23.10;99.90;;;;;;1043670;28;20083;-69
2022/08/03 02:19:10;;;;;;;2.15;1.60;;;23.20;99.90;;;;;;1042761;28;20028;-69
2022/08/03 02:19:42;;;;;;;3.13;1.75;;;23.10;99.90;;;;;;1039025;28;20006;-69
2022/08/03 02:20:14;;;;;;;5.10;1.35;;;23.10;99.90;;;;;;1038836;28;20141;-69
2022/08/03 02:20:46;;;;;;;5.05;1.67;;;23.10;99.90;;;;;;1039826;28;20014;-68
2022/08/03 02:21:17;;;;;;;2.28;1.50;;;23.10;99.90;;;;;;1042881;28;20086;-69
2022/08/03 02:21:50;;;;;;;4.70;1.27;;;23.10;99.90;;;;;;1043235;28;20067;-69
2022/08/03 02:22:22;;;;;;;2.35;1.50;;;23.10;99.90;;;;;;1042804;28;20116;-69
2022/08/03 02:22:53;;;;;;;2.65;1.40;;;23.10;99.90;;;;;;1043145;28;20013;-69
2022/08/03 02:23:24;;;;;;;3.33;1.40;;;23.10;99.90;;;;;;1043276;28;20024;-69
2022/08/03 02:23:55;;;;;;;5.50;1.83;;;23.10;99.90;;;;;;1043428;28;20479;-69
2022/08/03 02:24:27;;;;;;;2.70;1.58;;;23.10;99.90;;;;;;1043382;28;20009;-69
2022/08/03 02:24:57;;;;;;;4.13;1.75;;;23.10;99.90;;;;;;1043565;28;20013;-69
2022/08/03 02:25:30;;;;;;;2.73;1.47;;;23.10;99.90;;;;;;1043277;28;20005;-69
2022/08/03 02:26:04;;;;;;;5.50;1.63;;;23.10;99.90;;;;;;1043517;28;20005;-69
2022/08/03 02:26:37;;;;;;;4.93;1.70;;;23.10;99.90;;;;;;1043453;28;20013;-70
2022/08/03 02:27:28;;;;;;;5.45;1.55;;;23.10;99.90;;;;;;1043246;28;20058;-69
2022/08/03 02:28:10;;;;;;;3.30;1.55;;;23.10;99.90;;;;;;1042827;28;20094;-69
2022/08/03 02:28:45;;;;;;;3.38;1.50;;;23.10;99.90;;;;;;1038756;28;20014;-69
2022/08/03 02:29:20;;;;;;;2.20;1.23;;;23.10;99.90;;;;;;1038891;28;20097;-70
2022/08/03 02:30:08;;;;;;;4.15;1.42;;;23.10;99.90;;;;;;1041488;28;20185;-69
2022/08/03 02:30:41;;;;;;;;;;;23.10;99.90;;;;;;1043756;28;20060;-69
2022/08/03 02:31:16;;;;;;;4.90;1.75;;;23.10;99.90;;;;;;1041999;28;19909;-69
2022/08/03 02:31:49;;;;;;;4.95;1.98;;;23.10;99.90;;;;;;1038647;28;20079;-69
2022/08/03 02:32:27;;;;;;;4.55;1.48;;;23.10;99.90;;;;;;1039364;28;20643;-69
2022/08/03 02:33:00;;;;;;;3.33;1.55;;;23.10;99.90;;;;;;1042851;28;20017;-69
2022/08/03 02:33:37;;;;;;;1.95;1.30;;;23.10;99.90;;;;;;1043191;28;20039;-69
2022/08/03 02:34:12;;;;;;;3.30;1.55;;;23.10;99.90;;;;;;1042859;28;20387;-69
2022/08/03 02:34:47;;;;;;;4.72;1.52;;;23.10;99.90;;;;;;1043238;28;20023;-69
2022/08/03 02:35:21;;;;;;;5.03;1.50;;;23.00;99.90;;;;;;1041046;28;20078;-69
2022/08/03 02:35:53;;;;;;;4.43;1.85;;;23.00;99.90;;;;;;1042814;28;20060;-69
2022/08/03 02:36:27;;;;;;;2.67;1.40;;;23.00;99.90;;;;;;1043057;28;20059;-69
2022/08/03 02:36:59;;;;;;;4.30;1.75;;;23.00;99.90;;;;;;1040068;28;20022;-70
2022/08/03 02:37:40;;;;;;;3.00;1.60;;;23.00;99.90;;;;;;1043055;28;20021;-69
2022/08/03 02:38:14;;;;;;;2.83;1.60;;;23.00;99.90;;;;;;1042656;28;20508;-69
2022/08/03 02:38:48;;;;;;;4.07;1.40;;;23.00;99.90;;;;;;1043350;28;20055;-69
2022/08/03 02:39:22;;;;;;;2.92;1.60;;;23.00;99.90;;;;;;1042600;28;20021;-69
2022/08/03 02:40:00;;;;;;;3.88;1.90;;;23.00;99.90;;;;;;1043178;28;20383;-69
2022/08/03 02:40:32;;;;;;;3.03;1.30;;;23.00;99.90;;;;;;1042738;28;20013;-69
2022/08/03 02:41:07;;;;;;;3.25;1.33;;;23.00;99.90;;;;;;1040733;28;20073;-69
2022/08/03 02:41:45;;;;;;;4.65;1.60;;;23.10;99.90;;;;;;1038981;28;20018;-69
2022/08/03 02:42:20;;;;;;;2.60;1.52;;;23.00;99.90;;;;;;1038866;28;20669;-68
2022/08/03 02:42:54;;;;;;;4.65;2.42;;;23.00;99.90;;;;;;1042309;28;20414;-68
2022/08/03 02:43:26;;;;;;;3.15;1.58;;;23.10;99.90;;;;;;1042915;28;20063;-68
2022/08/03 02:44:01;;;;;;;3.85;1.48;;;23.00;99.90;;;;;;1043397;28;20021;-68
2022/08/03 02:44:32;;;;;;;4.70;1.58;;;23.00;99.90;;;;;;1043171;28;20136;-69
2022/08/03 02:45:09;;;;;;;6.57;1.50;;;23.00;99.90;;;;;;1043323;28;20009;-69
2022/08/03 02:45:46;;;;;;;3.65;1.95;;;23.00;99.90;;;;;;1043279;28;20699;-69
2022/08/03 02:46:20;;;;;;;3.33;1.70;;;23.00;99.90;;;;;;1043177;28;20049;-69
2022/08/03 02:46:55;;;;;;;3.10;1.50;;;23.00;99.90;;;;;;1039270;28;20075;-68
2022/08/03 02:47:27;;;;;;;2.33;1.60;;;23.00;99.90;;;;;;1039242;28;20445;-68
2022/08/03 02:48:02;;;;;;;3.88;1.45;;;23.00;99.90;;;;;;1042141;28;20070;-68
2022/08/03 02:48:36;;;;;;;3.13;1.35;;;23.00;99.90;;;;;;1043273;28;20025;-68
2022/08/03 02:49:12;;;;;;;2.55;1.73;;;23.00;99.90;;;;;;1043364;28;20009;-68
2022/08/03 02:49:45;;;;;;;3.13;1.50;;;23.00;99.90;;;;;;1043172;28;20429;-68
2022/08/03 02:50:18;;;;;;;6.05;1.85;;;22.90;99.90;;;;;;1042805;28;20508;-68
2022/08/03 02:50:54;;;;;;;3.08;1.60;;;22.90;99.90;;;;;;1042848;28;20032;-68
2022/08/03 02:51:26;;;;;;;4.18;1.90;;;23.00;99.90;;;;;;1042868;28;20056;-68
2022/08/03 02:51:58;;;;;;;5.47;1.73;;;22.90;99.90;;;;;;1042829;28;20028;-68
2022/08/03 02:52:31;;;;;;;4.05;1.70;;;22.90;99.90;;;;;;1043084;28;20059;-68
2022/08/03 02:53:03;;;;;;;3.13;1.58;;;22.90;99.90;;;;;;1042558;28;20759;-68
2022/08/03 02:53:35;;;;;;;2.70;1.50;;;22.90;99.90;;;;;;1042756;28;20017;-69
2022/08/03 02:54:08;;;;;;;1.92;1.08;;;22.90;99.90;;;;;;1042709;28;20025;-68
2022/08/03 02:54:40;;;;;;;4.78;1.85;;;22.90;99.90;;;;;;1042890;28;20447;-68
2022/08/03 02:55:12;;;;;;;3.38;1.63;;;22.90;99.90;;;;;;1042536;28;20025;-68
2022/08/03 02:55:45;;;;;;;3.33;1.45;;;22.90;99.90;;;;;;1043164;28;20592;-68
2022/08/03 02:56:18;;;;;;;2.53;1.40;;;22.90;99.90;;;;;;1042586;28;20028;-68
2022/08/03 02:56:50;;;;;;;2.72;1.38;;;22.90;99.90;;;;;;1042972;28;20459;-68
2022/08/03 02:57:24;;;;;;;4.15;1.80;;;22.90;99.90;;;;;;1042763;28;20421;-68
2022/08/03 02:57:59;;;;;;;2.25;1.23;;;22.90;99.90;;;;;;1039737;28;20049;-69
2022/08/03 02:58:31;;;;;;;4.25;1.80;;;23.00;99.90;;;;;;1043143;28;20009;-69
2022/08/03 02:59:03;;;;;;;2.55;1.30;;;22.90;99.90;;;;;;1042921;28;20088;-69